Chelsea, MI (48118)

4:20 PM EDT on April 27, 2017 (GMT -0400)
Yuki Acres | | Change Station

Elev 902 ft 42.33 °N, 84.02 °W | Updated 2 hours ago

Mostly Cloudy
Mostly Cloudy
68.5 °F
Feels Like 68.5 °F
N
8.9
Wind Variable Wind from SSW

Today
High -- | Low -- °F
--% Chance of Precip.
Yesterday
High -- | Low -- °F
Precip. -- in
Pressure 29.56 in
Visibility 10.0 miles
Clouds Clear
Dew Point 63 °F
Humidity 82%
Rainfall 0.09 in
Snow Depth Not available.
6:36 AM 8:31 PM
Waxing Crescent, 3% visible
METAR KARB 271953Z 21020G27KT 10SM CLR 18/09 A2957 RMK AO2 PK WND 23031/1933 SLP009 T01830094
Pressure 29.56 in
Visibility 10.0 miles
Clouds Clear
Dew Point 63 °F
Humidity 82%
Rainfall 0.09 in
Snow Depth Not available.
6:36 AM 8:31 PM
Waxing Crescent, 3% visible
METAR KARB 271953Z 21020G27KT 10SM CLR 18/09 A2957 RMK AO2 PK WND 23031/1933 SLP009 T01830094

Get Severe Weather Alerts

Thanks for signing up!

Be on the lookout for a verification email in your inbox.

You'll start receiving the daily forecast at 8 AM.

×

10-Day Weather Forecast

Almanac

Astronomy

Apr. 27, 2017 Rise Set
Actual Time
Civil Twilight
Nautical Twilight
Astronomical Twilight
Moon
Length of Visible Light
Length of Day
Tomorrow will be .
, % of the Moon is Illuminated

Today's Extremes

State Highs State Lows

Community

WunderPhotos

WunderBlog® & News

Nearby

Air Quality

  Air Quality AQ Index Pollutant
Not available.

Snow Depth

Station Depth Elevation

Earthquake Activity

City Distance Mag. Time & Date
Minimum magnitude displayed is 2.5.

Coastal Water Temperatures

Place Temperature

Stations

Nearby Weather Stations

Station Location Temp. Windchill Dew Point Humidity Wind Precip. Elev Updated Type
                   

Watches & Warnings

There are currently no watches in effect.